Great Falls, MT (59401)

10:13 AM MDT on August 30, 2014 (GMT -0600)
Spicer's | Change Station
CLOSE
Current Station
Personal Weather Station
Location: Great Falls, MT
Elevation: 3323 ft
Nearby Weather Stations

Elev 3323 ft 47.51 °N, 111.32 °W | Updated 8 seconds ago

Clear
Clear
70.5 °F
Feels Like 77 °F
N
4.0
Wind Variable Wind from West
Gusts 5.0 mph

Today
High -- | Low -- °F
--% Chance of Precip.
Yesterday
High -- | Low -- °F
Precip. -- in
6:41 AM 8:09 PM
Waxing Crescent, 23% visible
Pressure 29.74 in
Visibility 10.0 miles
Clouds Clear
Heat Index 77 °F
Dew Point 48 °F
Humidity 44%
Rainfall 0.00 in
Snow Depth Not available.
UV 3 out of 12
Pollen 8.00 out of 12
Air Quality Not available.
Flu Activity Not available.
METAR KGTF 301553Z 24014G19KT 10SM CLR 19/06 A2981 RMK AO2 SLP071 T01890061

More Conditions Fewer Conditions

Pressure 29.74 in
Visibility 10.0 miles
Clouds Clear
Heat Index 77 °F
Dew Point 48 °F
Humidity 44%
Rainfall 0.00 in
Snow Depth Not available.
UV 3 out of 12
Pollen 8.00 out of 12
Air Quality Not available.
Flu Activity Not available.
METAR KGTF 301553Z 24014G19KT 10SM CLR 19/06 A2981 RMK AO2 SLP071 T01890061

More Conditions Fewer Conditions

10-Day Weather Forecast

Almanac

Astronomy

Aug. 30, 2014 Rise Set
Actual Time 6:41 AM MDT 8:09 PM MDT
Civil Twilight 6:09 AM MDT 8:41 PM MDT
Nautical Twilight 5:30 AM MDT 9:19 PM MDT
Astronomical Twilight 4:48 AM MDT 10:01 PM MDT
Moon 11:55 AM MDT 10:21 PM MDT
Length of Visible Light 14h 31m
Length of Day
13h 27m
Tomorrow will be 3m 18s shorter.
Waxing Crescent, 23% of the Moon is Illuminated
Today
Waxing Crescent
Sep 2
First Quarter
Sep 8
Full
Sep 15
Last Quarter
Sep 24
New

Today's Extremes

State Highs State Lows

Community

WunderPhotos

Upload Photos

1,748,556 photos uploaded!

WunderBlogs® & News

Nearby

Snow Depth

Station Depth Elevation
Stringer Creek 0 in 6550 ft
Onion Park 0 in 7410 ft
Deadman Creek 0 in 6450 ft
Spur Park 0 in 8100 ft
Pickfoot Creek 0 in 6650 ft

Earthquake Activity

City Distance Mag. Time & Date
No recent earthquake activity has been reported nearby.
Minimum magnitude displayed is 2.5.

Coastal Water Temperatures

Place Temperature
No Stations Reporting

Nearby Weather Stations